Time;durP1;ratioP1;P1;durP2;ratioP2;P2;SDS_P1;SDS_P2;PMS_P1;PMS_P2;Temp;Humidity;BMP_temperature;BMP_pressure;BME280_temperature;BME280_humidity;BME280_pressure;Samples;Min_cycle;Max_cycle;Signal;HPM_P1;HPM_P2
2022/11/22 00:00:41;;;;;;;18.80;7.97;;;3.00;99.90;;;;;;4771665;30;20074;-77
2022/11/22 00:03:08;;;;;;;17.95;8.57;;;3.20;99.90;;;;;;4771944;30;20054;-77
2022/11/22 00:05:35;;;;;;;16.98;6.45;;;3.00;99.90;;;;;;4783293;29;20047;-77
2022/11/22 00:08:03;;;;;;;15.70;6.80;;;3.00;99.90;;;;;;4771510;30;20067;-77
2022/11/22 00:10:30;;;;;;;17.83;7.55;;;3.00;99.90;;;;;;4765837;29;20638;-77
2022/11/22 00:12:57;;;;;;;16.15;7.18;;;2.90;99.90;;;;;;4770008;30;20051;-77
2022/11/22 00:15:25;;;;;;;19.08;8.43;;;2.90;99.90;;;;;;4768299;30;20061;-77
2022/11/22 00:17:52;;;;;;;19.40;9.07;;;2.90;99.90;;;;;;4781745;30;20035;-76
2022/11/22 00:20:19;;;;;;;21.63;9.15;;;3.00;99.90;;;;;;4768639;30;20062;-76
2022/11/22 00:22:46;;;;;;;18.40;8.85;;;3.10;99.90;;;;;;4788167;29;20138;-77
2022/11/22 00:25:14;;;;;;;20.63;8.43;;;2.90;99.90;;;;;;4757911;30;20060;-77
2022/11/22 00:27:41;;;;;;;21.20;9.13;;;3.00;99.90;;;;;;4772852;30;20120;-77
2022/11/22 00:30:09;;;;;;;21.65;9.25;;;3.00;99.90;;;;;;4774178;30;20142;-77
2022/11/22 00:32:36;;;;;;;21.70;8.98;;;3.00;99.90;;;;;;4769993;29;20047;-77
2022/11/22 00:35:03;;;;;;;22.00;9.65;;;3.00;99.90;;;;;;4781462;29;20061;-77
2022/11/22 00:37:31;;;;;;;22.45;10.05;;;3.00;99.90;;;;;;4756389;29;20043;-77
2022/11/22 00:39:58;;;;;;;18.80;9.05;;;3.10;99.90;;;;;;4754128;30;20058;-77
2022/11/22 00:42:25;;;;;;;23.00;9.38;;;3.10;99.90;;;;;;4779644;30;20059;-77
2022/11/22 00:44:52;;;;;;;23.00;9.75;;;3.00;99.90;;;;;;4767553;30;20496;-77
2022/11/22 00:47:19;;;;;;;23.13;8.98;;;3.00;99.90;;;;;;4784923;29;20070;-77
2022/11/22 00:49:46;;;;;;;23.70;9.10;;;3.00;99.90;;;;;;4762877;30;20420;-77
2022/11/22 00:52:13;;;;;;;22.35;9.55;;;3.00;99.90;;;;;;4771623;30;20043;-76
2022/11/22 00:54:40;;;;;;;20.95;9.35;;;3.00;99.90;;;;;;4768428;29;20051;-76
2022/11/22 00:57:07;;;;;;;22.45;9.60;;;3.00;99.90;;;;;;4770272;30;20124;-76
2022/11/22 00:59:34;;;;;;;20.60;7.80;;;2.90;99.90;;;;;;4781533;29;20118;-76
2022/11/22 01:02:01;;;;;;;23.65;10.13;;;3.00;99.90;;;;;;4770519;30;20059;-76
2022/11/22 01:04:28;;;;;;;25.70;9.80;;;3.00;99.90;;;;;;4771818;30;20047;-76
2022/11/22 01:06:55;;;;;;;25.77;10.50;;;3.00;99.90;;;;;;4781706;29;20527;-76
2022/11/22 01:09:23;;;;;;;22.67;9.35;;;3.00;99.90;;;;;;4765310;30;20412;-76
2022/11/22 01:11:50;;;;;;;21.60;9.55;;;3.00;99.90;;;;;;4770777;29;20576;-76
2022/11/22 01:14:18;;;;;;;20.85;9.02;;;3.40;99.90;;;;;;4780896;29;20050;-76
2022/11/22 01:16:46;;;;;;;20.75;9.50;;;3.70;99.90;;;;;;4767781;30;20076;-77
2022/11/22 01:19:14;;;;;;;23.40;9.43;;;3.00;99.90;;;;;;4781979;29;20051;-77
2022/11/22 01:21:41;;;;;;;23.45;9.48;;;3.00;99.90;;;;;;4761998;30;20144;-77
2022/11/22 01:24:09;;;;;;;26.65;11.40;;;3.00;99.90;;;;;;4770489;30;20058;-77
2022/11/22 01:26:36;;;;;;;29.48;11.65;;;3.00;99.90;;;;;;4768886;30;20104;-76
2022/11/22 01:29:03;;;;;;;26.65;10.32;;;3.00;99.90;;;;;;4772608;29;20065;-76
2022/11/22 01:31:31;;;;;;;25.08;10.05;;;3.40;99.90;;;;;;4765613;30;20092;-76
2022/11/22 01:33:58;;;;;;;23.77;9.50;;;2.90;99.90;;;;;;4765762;30;20729;-76
2022/11/22 01:36:26;;;;;;;30.15;11.68;;;2.90;99.90;;;;;;4770874;30;20117;-76
2022/11/22 01:38:53;;;;;;;28.80;11.27;;;2.90;99.90;;;;;;4771056;29;20055;-76
2022/11/22 01:41:21;;;;;;;27.27;11.05;;;2.90;99.90;;;;;;4767518;29;20397;-76
2022/11/22 01:43:48;;;;;;;23.52;11.23;;;2.80;99.90;;;;;;4769035;30;20062;-76
2022/11/22 01:46:33;;;;;;;23.60;10.77;;;2.80;99.90;;;;;;4768779;30;20572;-76
2022/11/22 01:49:03;;;;;;;23.92;10.60;;;2.80;99.90;;;;;;4782173;29;20067;-76
2022/11/22 01:51:37;;;;;;;26.67;10.70;;;2.80;99.90;;;;;;4771809;29;20492;-76
2022/11/22 01:54:08;;;;;;;22.00;10.25;;;2.90;99.90;;;;;;4753664;30;20055;-76
2022/11/22 01:56:37;;;;;;;21.55;9.60;;;2.90;99.90;;;;;;4783573;30;20058;-76
2022/11/22 01:59:12;;;;;;;26.25;11.43;;;2.90;99.90;;;;;;4763860;30;20043;-76
2022/11/22 02:01:39;;;;;;;25.83;11.48;;;3.00;99.90;;;;;;4769716;30;20496;-76
2022/11/22 02:04:08;;;;;;;22.92;9.90;;;2.80;99.90;;;;;;4779711;30;20645;-76
2022/11/22 02:07:04;;;;;;;26.08;10.63;;;2.90;99.90;;;;;;4768185;30;20563;-76
2022/11/22 02:09:32;;;;;;;20.77;8.27;;;2.90;99.90;;;;;;4774234;29;20079;-76
2022/11/22 02:12:02;;;;;;;24.88;9.77;;;2.80;99.90;;;;;;4784951;29;20051;-76
2022/11/22 02:14:31;;;;;;;21.25;9.57;;;2.90;99.90;;;;;;4767530;30;20048;-76
2022/11/22 02:16:58;;;;;;;23.77;9.90;;;3.00;99.90;;;;;;4778120;29;20058;-76
2022/11/22 02:19:27;;;;;;;23.10;9.43;;;2.90;99.90;;;;;;4768407;30;20452;-76
2022/11/22 02:22:06;;;;;;;19.38;7.97;;;2.90;99.90;;;;;;4770832;30;20044;-76
2022/11/22 02:24:51;;;;;;;18.85;7.90;;;3.00;99.90;;;;;;4769459;30;20053;-76
2022/11/22 02:27:18;;;;;;;20.58;9.18;;;2.90;99.90;;;;;;4783992;29;20047;-76
2022/11/22 02:29:45;;;;;;;20.33;9.07;;;2.80;99.90;;;;;;4763528;30;20051;-77
2022/11/22 02:32:12;;;;;;;16.38;6.50;;;2.80;99.90;;;;;;4766369;30;20047;-77
2022/11/22 02:34:48;;;;;;;24.27;9.13;;;2.80;99.90;;;;;;4777924;29;20055;-77
2022/11/22 02:37:21;;;;;;;19.38;7.80;;;2.70;99.90;;;;;;4767711;30;20047;-77
2022/11/22 02:39:51;;;;;;;;;;;2.80;99.90;;;;;;4767846;29;20057;-75
2022/11/22 02:42:18;;;;;;;14.90;6.18;;;2.80;99.90;;;;;;4772730;29;19980;-77
2022/11/22 02:44:45;;;;;;;16.92;8.30;;;2.70;99.90;;;;;;4781550;29;20059;-77
2022/11/22 02:47:12;;;;;;;16.95;7.70;;;2.70;99.90;;;;;;4785316;29;20051;-76
2022/11/22 02:49:39;;;;;;;18.05;7.68;;;2.60;99.90;;;;;;4779617;29;20466;-77
2022/11/22 02:52:06;;;;;;;18.83;8.00;;;2.80;99.90;;;;;;4767112;30;20519;-77
2022/11/22 02:54:32;;;;;;;15.25;7.32;;;2.70;99.90;;;;;;4770112;30;20138;-77
2022/11/22 02:57:02;;;;;;;17.10;7.22;;;2.90;99.90;;;;;;4768132;30;21057;-77
2022/11/22 02:59:29;;;;;;;17.17;7.43;;;2.60;99.90;;;;;;4776106;29;20405;-77
2022/11/22 03:01:56;;;;;;;18.10;7.65;;;2.60;99.90;;;;;;4783544;29;20047;-76
2022/11/22 03:04:29;;;;;;;;;;;2.50;99.90;;;;;;4765389;30;20108;-76
2022/11/22 03:06:58;;;;;;;18.00;7.50;;;2.50;99.90;;;;;;4763876;30;19926;-76
2022/11/22 03:09:26;;;;;;;16.48;7.50;;;2.50;99.90;;;;;;4783573;30;20051;-76
2022/11/22 03:11:55;;;;;;;19.60;7.32;;;2.50;99.90;;;;;;4772795;30;20059;-76
2022/11/22 03:14:22;;;;;;;23.00;8.27;;;2.50;99.90;;;;;;4766943;30;20040;-76
2022/11/22 03:16:49;;;;;;;22.00;8.35;;;2.50;99.90;;;;;;4770122;30;20058;-76
2022/11/22 03:19:16;;;;;;;18.80;8.10;;;2.50;99.90;;;;;;4766722;30;20073;-76
2022/11/22 03:21:44;;;;;;;18.70;7.18;;;2.50;99.90;;;;;;4784950;30;20068;-76
2022/11/22 03:24:11;;;;;;;19.85;7.85;;;2.40;99.90;;;;;;4779774;29;20511;-77
2022/11/22 03:26:38;;;;;;;20.10;7.22;;;2.30;99.90;;;;;;4769183;29;20050;-77
2022/11/22 03:29:05;;;;;;;20.95;8.20;;;2.30;99.90;;;;;;4769165;29;20416;-77
2022/11/22 03:31:32;;;;;;;16.13;7.18;;;2.60;99.90;;;;;;4785874;29;20136;-76
2022/11/22 03:33:59;;;;;;;19.42;7.78;;;2.40;99.90;;;;;;4769414;30;20055;-77
2022/11/22 03:36:26;;;;;;;19.17;7.47;;;2.30;99.90;;;;;;4767127;30;20071;-77
2022/11/22 03:38:53;;;;;;;20.10;8.65;;;2.70;99.90;;;;;;4771710;30;20070;-77
2022/11/22 03:41:20;;;;;;;20.67;8.07;;;2.40;99.90;;;;;;4770947;29;20135;-77
2022/11/22 03:43:47;;;;;;;18.95;8.63;;;2.40;99.90;;;;;;4767657;30;20150;-77
2022/11/22 03:46:16;;;;;;;17.83;7.32;;;3.00;99.90;;;;;;4766289;30;20051;-77
2022/11/22 03:48:44;;;;;;;20.67;6.95;;;2.40;99.90;;;;;;4784081;29;20499;-77
2022/11/22 03:51:11;;;;;;;18.95;7.78;;;2.30;99.90;;;;;;4773143;29;20047;-77
2022/11/22 03:53:38;;;;;;;21.50;8.23;;;2.40;99.90;;;;;;4768252;30;20508;-77
2022/11/22 03:56:05;;;;;;;16.55;7.63;;;2.40;99.90;;;;;;4773821;30;20147;-77
2022/11/22 03:58:33;;;;;;;18.08;7.85;;;2.30;99.90;;;;;;4768798;30;20509;-77
2022/11/22 04:01:00;;;;;;;19.35;7.60;;;2.30;99.90;;;;;;4767966;29;20039;-77
2022/11/22 04:03:27;;;;;;;16.00;6.32;;;2.20;99.90;;;;;;4779001;29;20132;-77
2022/11/22 04:05:54;;;;;;;16.90;7.63;;;2.20;99.90;;;;;;4767647;30;20089;-77
2022/11/22 04:08:21;;;;;;;22.25;8.10;;;2.30;99.90;;;;;;4766731;30;20059;-77
2022/11/22 04:10:49;;;;;;;16.52;6.97;;;2.20;99.90;;;;;;4766681;29;20504;-76
2022/11/22 04:13:17;;;;;;;17.52;6.82;;;2.20;99.90;;;;;;4765396;30;20142;-77
2022/11/22 04:15:44;;;;;;;19.58;7.95;;;2.50;99.90;;;;;;4762883;30;20700;-76
2022/11/22 04:18:13;;;;;;;16.75;8.30;;;2.40;99.90;;;;;;4766104;30;20047;-77
2022/11/22 04:23:26;;;;;;;16.13;7.28;;;2.20;99.90;;;;;;4771738;30;20051;-76
2022/11/22 04:25:59;;;;;;;20.90;8.35;;;2.10;99.90;;;;;;4771089;30;22393;-77
2022/11/22 04:28:26;;;;;;;16.05;7.13;;;2.50;99.90;;;;;;4773350;30;20051;-76
2022/11/22 04:33:59;;;;;;;22.27;9.10;;;2.30;99.90;;;;;;4782030;29;20086;-77
2022/11/22 04:36:26;;;;;;;19.92;8.75;;;2.60;99.90;;;;;;4768675;30;20051;-77
2022/11/22 04:38:53;;;;;;;17.67;8.30;;;2.10;99.90;;;;;;4770925;30;20059;-77
2022/11/22 04:41:20;;;;;;;16.88;7.00;;;2.00;99.90;;;;;;4771025;30;20054;-77
2022/11/22 04:46:32;;;;;;;17.13;7.75;;;2.20;99.90;;;;;;4767246;30;20062;-77
2022/11/22 04:48:59;;;;;;;19.10;7.72;;;2.00;99.90;;;;;;4768349;30;20063;-77
2022/11/22 04:54:12;;;;;;;15.70;6.72;;;1.90;99.90;;;;;;4780435;29;20060;-77
2022/11/22 04:56:39;;;;;;;20.05;8.15;;;1.90;99.90;;;;;;4775155;29;20051;-77
2022/11/22 04:59:06;;;;;;;20.83;9.50;;;1.90;99.90;;;;;;4770562;30;20070;-77
2022/11/22 05:01:33;;;;;;;19.33;8.10;;;1.80;99.90;;;;;;4767168;30;20128;-77
2022/11/22 05:04:00;;;;;;;21.58;9.05;;;2.40;99.90;;;;;;4771159;30;20120;-76
2022/11/22 05:06:27;;;;;;;23.33;10.85;;;2.00;99.90;;;;;;4768518;30;20063;-76
2022/11/22 05:08:54;;;;;;;21.35;9.52;;;1.70;99.90;;;;;;4769533;30;20039;-76
2022/11/22 05:11:21;;;;;;;19.10;9.68;;;1.70;99.90;;;;;;4766753;30;20112;-76
2022/11/22 05:13:48;;;;;;;17.25;7.22;;;1.70;99.90;;;;;;4782145;29;20055;-76
2022/11/22 05:16:15;;;;;;;18.48;8.38;;;1.70;99.90;;;;;;4769850;29;20047;-76
2022/11/22 05:18:42;;;;;;;21.33;8.93;;;1.70;99.90;;;;;;4780912;29;20051;-76
2022/11/22 05:21:12;;;;;;;22.13;8.75;;;2.30;99.90;;;;;;4783539;30;20587;-76
2022/11/22 05:23:54;;;;;;;22.67;9.57;;;2.80;99.90;;;;;;4769382;30;20040;-76
2022/11/22 05:26:30;;;;;;;21.83;8.82;;;1.70;99.90;;;;;;4753255;29;20453;-76
2022/11/22 05:28:57;;;;;;;23.85;9.65;;;1.70;99.90;;;;;;4763772;30;20056;-76
2022/11/22 05:31:26;;;;;;;23.77;10.10;;;1.70;99.90;;;;;;4753502;30;20142;-76
2022/11/22 05:33:55;;;;;;;25.65;10.52;;;1.70;99.90;;;;;;4768535;30;20071;-76
2022/11/22 05:36:23;;;;;;;28.15;10.70;;;1.70;99.90;;;;;;4769432;29;20407;-76
2022/11/22 05:38:51;;;;;;;29.27;11.23;;;1.70;99.90;;;;;;4768749;29;20051;-76
2022/11/22 05:41:18;;;;;;;23.45;9.15;;;1.70;99.90;;;;;;4773067;29;20112;-76
2022/11/22 05:43:45;;;;;;;28.33;11.25;;;1.70;99.90;;;;;;4783080;29;20063;-76
2022/11/22 05:46:18;;;;;;;28.55;11.18;;;1.70;99.90;;;;;;4784882;29;20054;-76
2022/11/22 05:48:53;;;;;;;30.52;11.75;;;1.70;99.90;;;;;;4768382;30;20174;-76
2022/11/22 05:51:22;;;;;;;30.65;11.38;;;1.60;99.90;;;;;;4753660;30;20056;-76
2022/11/22 05:53:53;;;;;;;27.60;11.60;;;1.60;99.90;;;;;;4760228;30;20047;-76
2022/11/22 05:56:22;;;;;;;26.35;10.63;;;1.60;99.90;;;;;;4768534;30;20104;-76
2022/11/22 05:58:50;;;;;;;28.60;12.07;;;1.60;99.90;;;;;;4767123;30;20523;-77
2022/11/22 06:01:22;;;;;;;29.95;12.68;;;1.50;99.90;;;;;;4772512;30;20051;-77
2022/11/22 06:03:50;;;;;;;29.83;10.90;;;1.50;99.90;;;;;;4754620;30;20662;-77
2022/11/22 06:06:17;;;;;;;21.38;9.07;;;1.50;99.90;;;;;;4767423;29;20092;-77
2022/11/22 06:08:46;;;;;;;24.27;10.27;;;1.50;99.90;;;;;;4768976;30;20055;-76
2022/11/22 06:11:15;;;;;;;22.33;9.88;;;1.70;99.90;;;;;;4749389;30;20050;-76
2022/11/22 06:13:44;;;;;;;20.77;6.95;;;1.80;99.90;;;;;;4780583;29;20052;-77
2022/11/22 06:16:11;;;;;;;19.20;7.90;;;1.50;99.90;;;;;;4768379;29;20043;-77
2022/11/22 06:18:39;;;;;;;18.00;7.40;;;1.50;99.90;;;;;;4766085;30;20082;-77
2022/11/22 06:21:15;;;;;;;19.50;7.00;;;1.60;99.90;;;;;;4768428;30;21908;-77
2022/11/22 06:23:42;;;;;;;19.23;6.68;;;1.60;99.90;;;;;;4768735;30;20058;-77
2022/11/22 06:26:14;;;;;;;22.58;8.10;;;1.60;99.90;;;;;;4772593;30;20055;-77
2022/11/22 06:28:42;;;;;;;17.15;5.80;;;1.90;99.90;;;;;;4761230;30;20051;-77
2022/11/22 06:31:23;;;;;;;24.50;8.70;;;1.60;99.90;;;;;;4782354;29;20051;-77
2022/11/22 06:33:56;;;;;;;21.67;9.40;;;1.60;99.90;;;;;;4765855;30;20039;-77
2022/11/22 06:36:32;;;;;;;17.30;7.10;;;1.60;99.90;;;;;;4765621;30;20054;-77
2022/11/22 06:39:01;;;;;;;25.25;8.95;;;1.70;99.90;;;;;;4779060;30;20046;-77
2022/11/22 06:41:32;;;;;;;18.05;6.25;;;1.80;99.90;;;;;;4781956;29;20071;-78
2022/11/22 06:44:04;;;;;;;23.33;8.45;;;1.80;99.90;;;;;;4767131;29;20055;-77
2022/11/22 06:46:31;;;;;;;25.67;8.80;;;1.80;99.90;;;;;;4765344;29;24336;-76
2022/11/22 06:48:58;;;;;;;17.80;7.72;;;1.80;99.90;;;;;;4767337;30;20044;-77
2022/11/22 06:51:28;;;;;;;19.90;7.78;;;1.80;99.90;;;;;;4762239;30;21016;-77
2022/11/22 06:53:57;;;;;;;22.20;7.03;;;1.80;99.90;;;;;;4779175;29;20230;-77
2022/11/22 06:56:29;;;;;;;16.63;6.10;;;2.50;99.90;;;;;;4784168;29;20081;-78
2022/11/22 06:58:57;;;;;;;;;;;1.90;99.90;;;;;;4772409;30;20051;-79
2022/11/22 07:01:27;;;;;;;9.05;3.60;;;1.90;99.90;;;;;;4769464;29;19932;-78
2022/11/22 07:03:58;;;;;;;6.68;2.58;;;1.90;99.90;;;;;;4768731;30;20130;-78
2022/11/22 07:06:28;;;;;;;16.00;5.30;;;2.00;99.90;;;;;;4770011;29;20059;-78
2022/11/22 07:08:55;;;;;;;16.60;6.20;;;2.00;99.90;;;;;;4755974;30;20051;-79
2022/11/22 07:11:25;;;;;;;21.10;8.27;;;2.00;99.90;;;;;;4786027;29;20043;-79
2022/11/22 07:13:53;;;;;;;18.98;6.93;;;2.10;99.90;;;;;;4771016;29;20074;-79
2022/11/22 07:16:20;;;;;;;29.60;9.95;;;2.10;99.90;;;;;;4769358;29;20124;-79
2022/11/22 07:18:48;;;;;;;28.63;9.65;;;2.10;99.90;;;;;;4770321;30;20050;-79
2022/11/22 07:21:18;;;;;;;29.48;9.90;;;2.10;99.90;;;;;;4770142;29;20149;-79
2022/11/22 07:23:47;;;;;;;21.38;8.27;;;2.10;99.90;;;;;;4753982;30;20063;-79
2022/11/22 07:26:22;;;;;;;25.50;8.45;;;2.10;99.90;;;;;;4764412;29;20062;-78
2022/11/22 07:28:52;;;;;;;22.05;7.32;;;2.10;99.90;;;;;;4769224;30;20051;-79
2022/11/22 07:31:20;;;;;;;22.38;8.27;;;2.30;99.90;;;;;;4750744;30;20051;-79
2022/11/22 07:33:47;;;;;;;20.48;6.80;;;2.20;99.90;;;;;;4775671;29;20066;-79
2022/11/22 07:36:17;;;;;;;22.17;9.00;;;2.20;99.90;;;;;;4781060;29;20039;-79
2022/11/22 07:38:47;;;;;;;24.33;8.02;;;2.30;99.90;;;;;;4753281;30;20526;-79
2022/11/22 07:41:15;;;;;;;26.00;8.30;;;2.40;99.90;;;;;;4765581;29;20090;-78
2022/11/22 07:43:44;;;;;;;28.80;9.25;;;2.30;99.90;;;;;;4753470;30;20128;-79
2022/11/22 07:46:31;;;;;;;22.63;8.32;;;2.60;99.90;;;;;;4776407;29;20051;-79
2022/11/22 07:49:01;;;;;;;22.55;8.40;;;2.70;99.90;;;;;;4786355;29;20052;-78
2022/11/22 07:51:28;;;;;;;23.33;8.60;;;2.30;99.90;;;;;;4770781;30;20071;-79
2022/11/22 07:53:56;;;;;;;25.30;8.40;;;2.30;99.90;;;;;;4770875;30;20047;-78
2022/11/22 07:56:24;;;;;;;28.33;9.80;;;3.00;99.90;;;;;;4755916;30;20055;-79
2022/11/22 07:58:51;;;;;;;16.85;7.82;;;2.60;99.90;;;;;;4765001;30;20070;-78
2022/11/22 08:01:20;;;;;;;19.05;6.90;;;3.00;99.90;;;;;;4766958;30;20048;-79
2022/11/22 08:03:48;;;;;;;5.00;1.83;;;2.50;99.90;;;;;;4771836;30;20104;-78
2022/11/22 08:06:15;;;;;;;24.10;7.10;;;2.70;99.90;;;;;;4768781;30;20101;-79
2022/11/22 08:08:43;;;;;;;23.02;8.38;;;2.80;99.90;;;;;;4769588;30;20818;-79
2022/11/22 08:11:11;;;;;;;28.02;9.32;;;2.90;99.90;;;;;;4769730;29;20134;-79
2022/11/22 08:13:38;;;;;;;25.90;9.13;;;4.00;99.90;;;;;;4750462;30;20416;-79
2022/11/22 08:16:12;;;;;;;27.15;10.07;;;2.90;99.90;;;;;;4754992;29;20048;-78
2022/11/22 08:18:40;;;;;;;21.20;7.30;;;3.30;99.90;;;;;;4771008;29;20070;-79
2022/11/22 08:21:10;;;;;;;19.25;6.20;;;3.80;99.90;;;;;;4757629;30;20170;-78
2022/11/22 08:23:38;;;;;;;8.50;4.15;;;3.10;99.90;;;;;;4777864;29;20048;-79
2022/11/22 08:26:06;;;;;;;22.50;7.18;;;3.30;99.90;;;;;;4770589;30;20055;-78
2022/11/22 08:28:34;;;;;;;21.08;7.95;;;3.80;99.90;;;;;;4755442;30;20112;-78
2022/11/22 08:31:08;;;;;;;27.40;8.15;;;3.10;99.90;;;;;;4771369;30;20054;-78
2022/11/22 08:33:35;;;;;;;30.85;10.75;;;3.20;99.90;;;;;;4754845;30;20043;-78
2022/11/22 08:36:03;;;;;;;24.05;8.70;;;3.20;99.90;;;;;;4756500;30;20039;-78
2022/11/22 08:38:31;;;;;;;24.17;8.85;;;3.10;99.90;;;;;;4763686;30;20135;-77
2022/11/22 08:40:58;;;;;;;22.40;6.95;;;3.30;99.90;;;;;;4769688;29;20043;-79
2022/11/22 08:43:26;;;;;;;26.92;9.27;;;4.80;99.90;;;;;;4771725;29;20044;-78
2022/11/22 08:45:57;;;;;;;26.75;9.70;;;3.30;99.90;;;;;;4751966;29;20043;-78
2022/11/22 08:48:25;;;;;;;30.52;11.38;;;3.30;99.90;;;;;;4766805;30;20158;-78
2022/11/22 08:50:55;;;;;;;28.48;11.48;;;3.50;99.90;;;;;;4764116;30;20054;-78
2022/11/22 08:53:23;;;;;;;24.02;8.95;;;4.10;99.90;;;;;;4769513;29;20062;-78
2022/11/22 08:55:51;;;;;;;28.50;9.80;;;4.00;99.90;;;;;;4781966;29;20043;-77
2022/11/22 08:58:18;;;;;;;23.70;8.25;;;3.60;99.90;;;;;;4769992;30;20096;-79
2022/11/22 09:00:45;;;;;;;29.67;9.40;;;3.60;99.90;;;;;;4767388;30;21444;-78
2022/11/22 09:03:13;;;;;;;18.25;7.38;;;3.70;99.90;;;;;;4769169;30;20092;-79
2022/11/22 09:05:40;;;;;;;8.70;3.13;;;3.70;99.90;;;;;;4756700;30;20416;-78
2022/11/22 09:08:31;;;;;;;23.30;8.50;;;3.70;99.90;;;;;;4752987;30;20067;-79
2022/11/22 09:11:12;;;;;;;26.83;10.23;;;4.80;99.90;;;;;;4721029;30;20116;-77
2022/11/22 09:13:40;;;;;;;26.10;9.80;;;4.00;99.90;;;;;;4734811;30;20044;-78
2022/11/22 09:16:11;;;;;;;27.17;9.82;;;4.00;99.90;;;;;;4752820;30;20044;-77
2022/11/22 09:18:39;;;;;;;26.80;8.73;;;4.10;99.90;;;;;;4735771;30;20052;-78
2022/11/22 09:21:09;;;;;;;26.98;9.38;;;4.10;99.90;;;;;;4751500;30;20078;-78
2022/11/22 09:23:37;;;;;;;20.65;6.70;;;4.20;99.90;;;;;;4752191;30;20048;-78
2022/11/22 09:26:10;;;;;;;24.23;8.52;;;4.50;99.90;;;;;;4738937;30;20079;-78
2022/11/22 09:28:37;;;;;;;;;;;4.40;99.90;;;;;;4737339;30;20056;-77
2022/11/22 09:31:05;;;;;;;26.27;9.02;;;4.50;99.90;;;;;;4768853;30;19929;-78
2022/11/22 09:33:34;;;;;;;28.55;11.00;;;4.50;99.90;;;;;;4750800;30;20112;-78
2022/11/22 09:36:03;;;;;;;31.42;9.32;;;4.60;99.90;;;;;;4731793;30;20116;-78
2022/11/22 09:38:30;;;;;;;48.08;14.48;;;4.60;99.90;;;;;;4735635;30;21925;-78
2022/11/22 09:41:00;;;;;;;43.85;13.02;;;4.60;99.90;;;;;;4761817;30;20068;-78
2022/11/22 09:44:08;;;;;;;45.95;14.68;;;4.60;99.90;;;;;;4746437;30;20142;-77
2022/11/22 09:46:51;;;;;;;29.05;9.52;;;4.80;99.90;;;;;;4744169;30;23883;-78
2022/11/22 09:49:36;;;;;;;14.07;4.78;;;4.90;99.90;;;;;;4760946;30;20166;-78
2022/11/22 09:52:16;;;;;;;36.10;11.63;;;5.00;99.90;;;;;;4735000;30;20044;-79
2022/11/22 09:55:00;;;;;;;36.40;12.52;;;5.10;99.90;;;;;;4756610;30;20040;-78
2022/11/22 09:57:34;;;;;;;33.70;11.63;;;5.10;99.90;;;;;;4760532;30;20172;-78
2022/11/22 10:00:06;;;;;;;31.08;10.45;;;5.10;99.90;;;;;;4745736;30;20051;-78
2022/11/22 10:02:46;;;;;;;33.75;13.23;;;5.20;99.90;;;;;;4745393;30;20050;-78
2022/11/22 10:05:37;;;;;;;27.90;10.18;;;5.30;99.90;;;;;;4751675;30;20927;-78
2022/11/22 10:08:34;;;;;;;32.13;11.65;;;5.30;99.90;;;;;;4771169;29;20469;-78
2022/11/22 10:11:10;;;;;;;34.38;11.05;;;5.40;99.90;;;;;;4751664;30;20067;-77
2022/11/22 10:13:51;;;;;;;25.70;10.80;;;5.50;99.90;;;;;;4763114;30;20072;-77
2022/11/22 10:16:31;;;;;;;24.92;10.15;;;5.40;99.90;;;;;;4776680;29;20560;-79
2022/11/22 10:19:15;;;;;;;15.98;6.88;;;5.40;99.90;;;;;;4760117;30;20048;-79
2022/11/22 10:21:46;;;;;;;27.90;10.43;;;5.40;99.90;;;;;;4765760;30;20055;-78
2022/11/22 10:24:18;;;;;;;30.75;11.70;;;5.50;99.90;;;;;;4768167;30;20058;-78
2022/11/22 10:26:46;;;;;;;28.92;9.50;;;5.50;99.90;;;;;;4767917;30;20635;-78
2022/11/22 10:29:44;;;;;;;28.30;10.27;;;5.60;99.90;;;;;;4769507;30;20051;-78
2022/11/22 10:32:14;;;;;;;31.02;11.07;;;5.50;99.90;;;;;;4762529;30;20082;-78
2022/11/22 10:34:44;;;;;;;25.42;9.90;;;5.50;99.90;;;;;;4760166;30;20070;-78
2022/11/22 10:37:25;;;;;;;25.42;10.77;;;5.50;99.90;;;;;;4758388;30;20133;-78
2022/11/22 10:40:11;;;;;;;26.10;10.80;;;5.50;99.90;;;;;;4775273;30;20078;-77
2022/11/22 10:43:15;;;;;;;23.38;8.52;;;5.50;99.90;;;;;;4764793;30;20052;-78
2022/11/22 10:45:47;;;;;;;28.00;10.20;;;5.40;99.90;;;;;;4762925;30;20386;-79
2022/11/22 10:48:29;;;;;;;22.70;8.32;;;5.40;99.90;;;;;;4774891;30;20055;-78
2022/11/22 10:51:21;;;;;;;30.70;11.43;;;5.50;99.90;;;;;;4759438;30;20060;-78
2022/11/22 10:54:24;;;;;;;15.20;5.53;;;5.60;99.90;;;;;;4748661;30;20056;-77
2022/11/22 10:57:02;;;;;;;47.72;19.98;;;5.70;99.90;;;;;;4751412;30;20052;-77
2022/11/22 10:59:31;;;;;;;50.88;18.80;;;5.80;99.90;;;;;;4775968;30;20058;-78
2022/11/22 11:02:10;;;;;;;45.67;19.77;;;5.90;99.90;;;;;;4758064;30;20067;-78
2022/11/22 11:04:39;;;;;;;12.52;5.22;;;6.00;99.90;;;;;;4780572;30;20051;-77
2022/11/22 11:07:20;;;;;;;16.92;7.95;;;6.00;99.90;;;;;;4779988;29;20881;-78
2022/11/22 11:09:56;;;;;;;44.83;21.85;;;6.10;99.90;;;;;;4761102;30;20048;-77
2022/11/22 11:12:49;;;;;;;31.23;14.20;;;6.10;99.90;;;;;;4764337;30;20595;-78
2022/11/22 11:15:19;;;;;;;40.45;18.08;;;6.20;99.90;;;;;;4777911;30;20131;-78
2022/11/22 11:17:52;;;;;;;19.95;7.47;;;6.20;99.90;;;;;;4764204;30;20055;-78
2022/11/22 11:20:26;;;;;;;15.25;6.43;;;6.40;99.90;;;;;;4762963;30;20089;-78
2022/11/22 11:22:55;;;;;;;28.65;12.63;;;6.40;99.90;;;;;;4766198;30;20074;-79
2022/11/22 11:25:43;;;;;;;23.27;11.15;;;6.40;99.90;;;;;;4768824;30;20052;-78
2022/11/22 11:28:23;;;;;;;35.60;14.82;;;6.50;99.90;;;;;;4765224;30;20140;-78
2022/11/22 11:31:06;;;;;;;34.60;12.25;;;6.50;99.90;;;;;;4777863;30;20055;-78
2022/11/22 11:33:37;;;;;;;29.60;11.30;;;6.60;99.90;;;;;;4766073;30;20047;-78
2022/11/22 11:36:21;;;;;;;27.58;12.15;;;6.50;99.90;;;;;;4779068;30;20056;-78
2022/11/22 11:38:57;;;;;;;33.40;13.15;;;6.60;99.90;;;;;;4769358;30;20055;-79
2022/11/22 11:41:28;;;;;;;37.78;15.70;;;6.50;99.90;;;;;;4753268;30;20504;-78
2022/11/22 11:44:03;;;;;;;40.35;17.08;;;6.50;99.90;;;;;;4767073;30;20062;-78
2022/11/22 11:46:44;;;;;;;74.15;33.22;;;6.40;99.90;;;;;;4775117;29;20075;-78
2022/11/22 11:49:17;;;;;;;200.32;74.00;;;6.50;99.90;;;;;;4768193;30;20048;-77
2022/11/22 11:51:47;;;;;;;105.25;44.03;;;6.50;99.90;;;;;;4770128;30;20052;-77
2022/11/22 11:54:15;;;;;;;76.90;33.97;;;6.50;99.90;;;;;;4762684;30;20532;-78
2022/11/22 11:56:45;;;;;;;66.85;33.92;;;6.50;99.90;;;;;;4765139;30;20051;-79
2022/11/22 11:59:21;;;;;;;54.22;27.30;;;6.60;99.90;;;;;;4769527;30;20101;-77
2022/11/22 12:01:56;;;;;;;45.03;17.08;;;6.60;99.90;;;;;;4767661;30;20160;-78
2022/11/22 12:04:33;;;;;;;34.50;16.42;;;6.60;99.90;;;;;;4767650;30;20048;-79
2022/11/22 12:07:22;;;;;;;35.75;16.83;;;6.60;99.90;;;;;;4755696;29;20128;-79
2022/11/22 12:09:51;;;;;;;32.00;11.65;;;6.60;99.90;;;;;;4770809;29;20137;-78
2022/11/22 12:12:28;;;;;;;35.63;14.30;;;6.70;99.90;;;;;;4770006;30;20078;-78
2022/11/22 12:15:27;;;;;;;77.50;30.05;;;6.70;99.90;;;;;;4787067;30;20054;-77
2022/11/22 12:18:11;;;;;;;36.83;15.18;;;6.70;99.90;;;;;;4771002;30;20599;-78
2022/11/22 12:21:02;;;;;;;47.45;18.52;;;6.70;99.90;;;;;;4769267;30;20044;-77
2022/11/22 12:23:42;;;;;;;42.40;15.63;;;6.50;99.90;;;;;;4773673;30;20431;-78
2022/11/22 12:26:17;;;;;;;38.13;14.45;;;6.40;99.90;;;;;;4768929;30;20066;-78
2022/11/22 12:28:44;;;;;;;36.08;14.20;;;6.30;99.90;;;;;;4756956;30;20077;-77
2022/11/22 12:31:20;;;;;;;43.50;16.60;;;6.40;99.90;;;;;;4783911;29;20047;-77
2022/11/22 12:34:26;;;;;;;29.90;11.00;;;6.40;99.90;;;;;;4775871;29;20058;-77
2022/11/22 12:37:17;;;;;;;43.58;15.80;;;6.40;99.90;;;;;;4781685;29;20068;-77
2022/11/22 12:39:49;;;;;;;42.67;13.88;;;6.40;99.90;;;;;;4785428;29;20047;-77
2022/11/22 12:42:23;;;;;;;51.13;18.85;;;6.30;99.90;;;;;;4758631;30;20055;-77
2022/11/22 12:45:05;;;;;;;45.45;17.77;;;6.30;99.90;;;;;;4771012;30;20054;-77
2022/11/22 12:47:37;;;;;;;43.60;15.82;;;6.20;99.90;;;;;;4770561;29;20073;-78
2022/11/22 12:50:20;;;;;;;35.50;13.50;;;6.10;99.90;;;;;;4769841;30;20124;-78
2022/11/22 12:52:54;;;;;;;46.88;16.65;;;6.10;99.90;;;;;;4760904;30;20142;-77
2022/11/22 12:55:24;;;;;;;38.55;14.98;;;6.00;99.90;;;;;;4756171;30;20428;-76
2022/11/22 12:58:20;;;;;;;36.10;14.27;;;6.00;99.90;;;;;;4783991;29;20055;-76
2022/11/22 13:01:04;;;;;;;40.13;14.90;;;6.00;99.90;;;;;;4771256;30;20533;-77
2022/11/22 13:03:43;;;;;;;34.60;15.25;;;5.90;99.90;;;;;;4754126;30;20144;-78
2022/11/22 13:06:12;;;;;;;34.58;12.93;;;5.80;99.90;;;;;;4767620;29;20060;-77
2022/11/22 13:09:05;;;;;;;216.25;62.88;;;5.80;99.90;;;;;;4779892;30;22036;-77
2022/11/22 13:12:05;;;;;;;37.15;14.70;;;5.80;99.90;;;;;;4781001;29;20079;-77
2022/11/22 13:14:43;;;;;;;39.63;15.88;;;5.80;99.90;;;;;;4791046;29;20059;-78
2022/11/22 13:17:14;;;;;;;54.42;24.60;;;5.80;99.90;;;;;;4773634;29;20530;-78
2022/11/22 13:19:56;;;;;;;61.53;26.23;;;5.80;99.90;;;;;;4779654;29;20049;-77